createdAt,value
2023-02-27T00:00:39.328Z,63.40
2023-02-27T00:03:10.966Z,63.75
2023-02-27T00:05:41.614Z,64.07
2023-02-27T00:08:12.144Z,64.58
2023-02-27T00:10:43.396Z,64.99
2023-02-27T00:13:12.761Z,65.69
2023-02-27T00:15:43.880Z,66.18
2023-02-27T00:18:19.385Z,66.61
2023-02-27T00:20:50.382Z,67.25
2023-02-27T00:23:32.245Z,67.40
2023-02-27T00:26:04.903Z,67.58
2023-02-27T00:28:36.330Z,67.71
2023-02-27T00:31:05.199Z,67.76
2023-02-27T00:33:36.688Z,67.77
2023-02-27T00:36:05.072Z,67.82
2023-02-27T00:38:45.518Z,67.82
2023-02-27T00:41:17.283Z,67.88
2023-02-27T00:43:47.019Z,67.97
2023-02-27T00:46:15.491Z,68.07
2023-02-27T00:48:53.769Z,68.23
2023-02-27T00:51:26.454Z,68.37
2023-02-27T00:59:53.404Z,68.36
2023-02-27T01:02:30.737Z,68.49
2023-02-27T01:05:43.660Z,68.65
2023-02-27T01:22:36.126Z,69.81
2023-02-27T01:51:27.384Z,70.62
2023-02-27T01:54:12.478Z,70.94
2023-02-27T02:04:01.869Z,70.92
2023-02-27T02:06:44.862Z,70.81
2023-02-27T02:09:26.026Z,71.01
2023-02-27T02:12:04.714Z,71.00
2023-02-27T02:15:18.663Z,71.26
2023-02-27T02:18:27.262Z,71.16
2023-02-27T02:21:31.686Z,71.16
2023-02-27T02:34:17.576Z,71.70
2023-02-27T02:47:35.735Z,72.57
2023-02-27T02:50:36.580Z,72.60
2023-02-27T02:58:03.468Z,73.01
2023-02-27T03:01:08.716Z,72.84
2023-02-27T03:04:01.784Z,72.75
2023-02-27T03:06:39.304Z,72.43
2023-02-27T03:09:25.659Z,72.36
2023-02-27T03:12:07.362Z,72.55
2023-02-27T03:15:15.348Z,72.51
2023-02-27T03:17:55.661Z,72.63
2023-02-27T03:20:38.404Z,72.65
2023-02-27T03:23:33.741Z,72.42
2023-02-27T03:26:11.859Z,72.36
2023-02-27T03:29:30.389Z,72.46
2023-02-27T03:32:53.179Z,72.56
2023-02-27T03:35:23.461Z,72.73
2023-02-27T03:38:24.798Z,72.76
2023-02-27T03:41:27.057Z,72.75
2023-02-27T03:44:35.129Z,72.55
2023-02-27T03:47:12.270Z,72.39
2023-02-27T03:49:42.274Z,72.39
2023-02-27T03:52:13.122Z,72.33
2023-02-27T03:54:56.250Z,72.15
2023-02-27T03:57:27.197Z,72.38
2023-02-27T03:59:57.305Z,72.41
2023-02-27T04:02:34.781Z,72.18
2023-02-27T04:05:14.069Z,72.29
2023-02-27T04:07:53.994Z,72.25
2023-02-27T04:12:31.304Z,72.08
2023-02-27T04:15:52.560Z,71.43
2023-02-27T04:22:05.300Z,71.45
2023-02-27T04:25:24.717Z,71.65
2023-02-27T04:28:13.339Z,71.44
2023-02-27T04:40:28.263Z,69.54
2023-02-27T04:49:57.251Z,68.96
2023-02-27T04:56:48.680Z,67.73
2023-02-27T04:59:43.670Z,67.79
2023-02-27T05:03:04.301Z,67.64
2023-02-27T05:05:44.628Z,67.51
2023-02-27T05:08:52.749Z,67.48
2023-02-27T05:12:36.078Z,67.43
2023-02-27T05:15:36.872Z,67.55
2023-02-27T05:21:39.827Z,67.18
2023-02-27T05:24:38.576Z,66.82
2023-02-27T05:27:50.625Z,66.55
2023-02-27T05:31:27.166Z,66.51
2023-02-27T05:34:22.953Z,66.01
2023-02-27T06:50:43.956Z,55.82
2023-02-27T07:07:39.027Z,53.66
2023-02-27T07:10:42.521Z,53.01
2023-02-27T07:13:19.288Z,52.83
2023-02-27T07:15:53.622Z,52.88
2023-02-27T07:21:34.736Z,53.02
2023-02-27T07:24:06.098Z,52.72
2023-02-27T07:26:35.995Z,52.67
2023-02-27T07:29:06.684Z,52.82
2023-02-27T07:31:42.171Z,52.94
2023-02-27T07:34:12.486Z,52.48
2023-02-27T07:36:39.284Z,52.55
2023-02-27T07:39:10.687Z,52.43
2023-02-27T07:41:39.468Z,52.23
2023-02-27T07:44:13.466Z,52.18
2023-02-27T07:46:41.507Z,51.55
2023-02-27T07:49:07.874Z,51.66
2023-02-27T07:51:40.646Z,51.06
2023-02-27T07:54:07.075Z,51.19
2023-02-27T07:56:35.625Z,50.29
2023-02-27T07:59:02.226Z,49.67
2023-02-27T08:01:29.408Z,49.43
2023-02-27T08:03:59.645Z,49.48
2023-02-27T08:06:26.521Z,49.25
2023-02-27T08:08:53.366Z,48.91
2023-02-27T08:11:21.252Z,48.89
2023-02-27T08:14:00.254Z,48.41
2023-02-27T08:16:33.108Z,47.96
2023-02-27T08:19:00.710Z,46.89
2023-02-27T08:21:39.740Z,47.71
2023-02-27T08:24:06.559Z,47.89
2023-02-27T08:26:34.826Z,47.60
2023-02-27T08:29:01.338Z,47.29
2023-02-27T08:31:45.067Z,47.03
2023-02-27T08:34:17.800Z,47.13
2023-02-27T08:36:45.857Z,47.09
2023-02-27T08:39:14.742Z,47.18
2023-02-27T08:41:41.926Z,46.91
2023-02-27T08:44:09.170Z,46.66
2023-02-27T08:46:37.503Z,46.95
2023-02-27T08:49:07.460Z,46.34
2023-02-27T08:51:43.574Z,46.11
2023-02-27T08:54:11.053Z,46.14
2023-02-27T08:59:36.939Z,45.86
2023-02-27T09:02:17.076Z,45.92
2023-02-27T09:04:49.401Z,45.77
2023-02-27T09:07:27.939Z,45.88
2023-02-27T09:09:58.704Z,45.60
2023-02-27T09:12:28.520Z,45.83
2023-02-27T09:15:03.444Z,46.16
2023-02-27T09:17:33.793Z,46.58
2023-02-27T09:23:03.662Z,46.66
2023-02-27T09:25:57.505Z,46.77
2023-02-27T09:28:44.785Z,46.78
2023-02-27T09:31:39.804Z,46.85
2023-02-27T09:34:06.674Z,46.80
2023-02-27T09:36:33.801Z,47.09
2023-02-27T09:39:12.729Z,47.48
2023-02-27T09:42:20.293Z,47.24
2023-02-27T09:45:02.648Z,47.53
2023-02-27T09:47:47.619Z,47.31
2023-02-27T09:50:59.327Z,47.07
2023-02-27T09:54:30.729Z,46.58
2023-02-27T09:57:40.955Z,47.30
2023-02-27T10:00:40.132Z,47.39
2023-02-27T10:03:34.922Z,47.18
2023-02-27T10:06:51.025Z,46.55
2023-02-27T10:40:05.091Z,45.19
2023-02-27T10:42:41.676Z,45.72
2023-02-27T10:45:17.016Z,45.90
2023-02-27T10:47:44.662Z,45.93
2023-02-27T10:50:43.512Z,45.98
2023-02-27T10:53:23.789Z,45.79
2023-02-27T10:56:22.944Z,46.09
2023-02-27T10:59:27.159Z,45.63
2023-02-27T11:02:35.914Z,45.79
2023-02-27T11:05:09.851Z,45.82
2023-02-27T11:07:39.200Z,46.03
2023-02-27T11:10:28.845Z,46.09
2023-02-27T11:13:26.419Z,45.88
2023-02-27T11:16:26.466Z,45.68
2023-02-27T11:18:58.082Z,45.70
2023-02-27T11:21:32.441Z,46.05
2023-02-27T11:24:28.838Z,46.11
2023-02-27T11:27:03.484Z,45.79
2023-02-27T11:29:31.091Z,45.03
2023-02-27T11:32:21.809Z,44.68
2023-02-27T11:34:57.795Z,44.85
2023-02-27T11:37:37.229Z,44.50
2023-02-27T11:40:19.525Z,44.49
2023-02-27T11:43:03.334Z,44.88
2023-02-27T11:46:19.033Z,45.31
2023-02-27T11:49:16.528Z,45.23
2023-02-27T11:51:49.930Z,45.30
2023-02-27T11:54:41.428Z,45.19
2023-02-27T11:57:46.557Z,45.15
2023-02-27T12:00:29.202Z,44.75
2023-02-27T12:03:38.646Z,44.87
2023-02-27T12:06:20.140Z,45.24
2023-02-27T12:09:03.695Z,45.23
2023-02-27T12:11:42.226Z,45.35
2023-02-27T12:23:58.470Z,44.98
2023-02-27T12:26:39.340Z,44.82
2023-02-27T12:36:17.553Z,44.11
2023-02-27T12:38:46.209Z,44.30
2023-02-27T12:41:55.399Z,44.39
2023-02-27T12:44:56.119Z,44.14
2023-02-27T12:51:44.615Z,43.71
2023-02-27T13:19:16.935Z,44.83
2023-02-27T13:22:22.167Z,44.69
2023-02-27T13:24:59.969Z,44.93
2023-02-27T13:27:54.055Z,44.38
2023-02-27T13:30:42.821Z,43.82
2023-02-27T13:33:49.530Z,44.61
2023-02-27T13:39:39.949Z,44.49
2023-02-27T13:42:48.409Z,44.46
2023-02-27T13:45:56.861Z,44.76
2023-02-27T13:48:41.982Z,44.65
2023-02-27T13:51:30.539Z,44.40
2023-02-27T13:54:25.023Z,44.26
2023-02-27T13:57:22.552Z,44.48
2023-02-27T14:00:38.204Z,44.59
2023-02-27T14:03:29.956Z,44.57
2023-02-27T14:06:03.348Z,44.10
2023-02-27T14:09:14.108Z,44.80
2023-02-27T14:14:55.909Z,44.84
2023-02-27T14:17:44.579Z,44.83
2023-02-27T14:20:54.446Z,44.66
2023-02-27T14:23:48.695Z,44.46
2023-02-27T14:26:38.504Z,44.80
2023-02-27T14:29:06.339Z,44.91
2023-02-27T14:31:41.012Z,44.91
2023-02-27T14:34:15.747Z,44.74
2023-02-27T14:37:24.773Z,44.56
2023-02-27T14:40:00.710Z,44.17
2023-02-27T14:42:48.977Z,44.55
2023-02-27T14:45:42.953Z,44.56
2023-02-27T14:48:32.523Z,44.50
2023-02-27T14:51:03.237Z,44.78
2023-02-27T14:53:32.671Z,45.07
2023-02-27T14:56:19.240Z,44.83
2023-02-27T15:01:41.621Z,45.08
2023-02-27T15:04:19.498Z,45.27
2023-02-27T15:06:53.386Z,45.09
2023-02-27T15:09:44.910Z,45.21
2023-02-27T15:12:44.433Z,45.24
2023-02-27T15:15:22.072Z,45.14
2023-02-27T15:18:00.112Z,45.02
2023-02-27T15:20:40.057Z,45.35
2023-02-27T15:23:31.082Z,45.61
2023-02-27T15:26:00.026Z,45.99
2023-02-27T15:28:36.661Z,46.06
2023-02-27T15:31:06.640Z,45.93
2023-02-27T15:33:40.465Z,45.78
2023-02-27T15:36:39.711Z,45.49
2023-02-27T15:39:15.155Z,45.52
2023-02-27T15:42:11.475Z,45.54
2023-02-27T15:44:49.726Z,45.48
2023-02-27T15:47:28.150Z,45.38
2023-02-27T15:50:09.990Z,45.29
2023-02-27T15:53:05.152Z,45.70
2023-02-27T15:55:37.736Z,45.58
2023-02-27T15:58:32.919Z,45.62
2023-02-27T16:01:21.632Z,45.63
2023-02-27T16:03:52.420Z,45.62
2023-02-27T16:06:34.184Z,45.73
2023-02-27T16:09:41.174Z,45.56
2023-02-27T16:12:52.409Z,45.68
2023-02-27T16:16:10.241Z,45.83
2023-02-27T16:19:01.318Z,45.81
2023-02-27T16:22:16.199Z,45.91
2023-02-27T16:25:47.618Z,45.99
2023-02-27T16:28:19.902Z,46.06
2023-02-27T16:32:06.481Z,46.11
2023-02-27T16:34:57.208Z,46.32
2023-02-27T16:38:11.562Z,46.55
2023-02-27T16:41:43.870Z,46.57
2023-02-27T16:45:37.061Z,46.59
2023-02-27T16:48:42.344Z,46.40
2023-02-27T16:51:18.178Z,46.50
2023-02-27T16:58:48.366Z,46.46
2023-02-27T17:03:14.040Z,46.57
2023-02-27T17:09:49.387Z,46.74
2023-02-27T17:11:58.340Z,46.57
2023-02-27T17:15:39.360Z,46.78
2023-02-27T18:02:58.019Z,46.45
2023-02-27T18:42:00.575Z,46.14
2023-02-27T18:45:55.166Z,45.75
2023-02-27T18:53:32.124Z,45.80
2023-02-27T19:02:32.130Z,46.00
2023-02-27T19:06:44.344Z,45.99
2023-02-27T19:11:07.082Z,46.04
2023-02-27T19:14:58.332Z,46.03
2023-02-27T19:23:00.575Z,46.64
2023-02-27T19:26:55.146Z,46.71
2023-02-27T19:31:10.767Z,46.88
2023-02-27T19:34:48.538Z,47.08
2023-02-27T20:35:01.831Z,48.70
2023-02-27T20:43:52.192Z,48.80
2023-02-27T20:49:52.257Z,48.33
2023-02-27T20:51:54.608Z,48.31
2023-02-27T20:56:03.771Z,48.46
2023-02-27T21:00:06.584Z,48.48
2023-02-27T21:03:22.768Z,48.62
2023-02-27T21:06:51.707Z,48.67
2023-02-27T21:10:30.721Z,48.64
2023-02-27T21:19:09.556Z,48.82
2023-02-27T21:23:08.572Z,48.93
2023-02-27T21:26:43.918Z,48.86
2023-02-27T21:30:33.609Z,49.17
2023-02-27T21:34:25.693Z,49.30
2023-02-27T21:38:44.964Z,49.44
2023-02-27T21:42:26.267Z,49.56
2023-02-27T21:46:48.909Z,49.79
2023-02-27T21:51:13.616Z,49.58
2023-02-27T21:55:23.792Z,49.87
2023-02-27T22:03:09.804Z,50.03
2023-02-27T22:07:04.279Z,50.22
2023-02-27T22:16:58.749Z,50.57
2023-02-27T22:19:58.499Z,50.58
2023-02-27T22:23:56.041Z,50.61
2023-02-27T22:27:43.443Z,51.06
2023-02-27T22:31:37.800Z,51.11
2023-02-27T22:35:10.522Z,51.44
2023-02-27T22:39:06.049Z,51.60
2023-02-27T22:42:43.026Z,51.89
2023-02-27T22:46:14.281Z,51.85
2023-02-27T22:49:30.073Z,52.31
2023-02-27T23:01:59.456Z,52.82
2023-02-27T23:06:16.016Z,53.12
2023-02-27T23:09:37.885Z,53.33
2023-02-27T23:21:55.456Z,53.58
2023-02-27T23:25:47.991Z,53.96
2023-02-27T23:29:30.385Z,54.34
2023-02-27T23:33:08.824Z,54.15
2023-02-27T23:36:49.400Z,54.42
2023-02-27T23:40:44.909Z,54.92
2023-02-27T23:44:34.172Z,55.10
2023-02-27T23:48:31.470Z,55.19
2023-02-27T23:52:48.010Z,55.54
2023-02-27T23:56:44.630Z,55.09
